Amoy Dream — VRHD5 — position and weather

sailwx.info

Track history (hours):
 
Tides and Currents Weather Stations Pressure Air Temp Water Temp Dewpoint Dewpoint Depression Visibility Wind Speed Wind Dir Waves Ship Positions

Amoy Dream

Last reported at 2017-Feb-17 18:21 UTC. Time now 2017-Feb-20 13:58 UTC.
Position N 36°03' E 015°06'.

Length 190 m; draft 12.8 m.

Type: Cargo ship. MMSI: 477826600.

Date/timePositionNaut miles runAvg speedWind from/ knotsBaromVisibWave heightAir tempDewpointWater temp
2017-Feb-17 18:21N 36°03' E 015°06'911.4
2017-Feb-17 17:33N 36°03' E 014°54'1211.5
2017-Feb-17 16:33N 36°02' E 014°40'1111.4
2017-Feb-17 15:33N 36°02' E 014°26'2 2.1
2017-Feb-17 14:32N 36°01' E 014°24'0 0.0
2017-Feb-17 13:32N 36°01' E 014°24'0 0.0
2017-Feb-17 12:32N 36°01' E 014°24'0 0.0
2017-Feb-17 11:32N 36°01' E 014°24'0 0.0
2017-Feb-17 10:32N 36°01' E 014°24'0 0.0
2017-Feb-17 09:32N 36°01' E 014°24'0 0.1
2017-Feb-17 08:32N 36°01' E 014°23'6 6.1
2017-Feb-17 07:33N 36°06' E 014°19'1211.6
2017-Feb-17 06:33N 36°11' E 014°06'1211.6
2017-Feb-17 05:33N 36°16' E 013°53'1211.7
2017-Feb-17 04:33N 36°21' E 013°40'1111.5
2017-Feb-17 03:33N 36°26' E 013°28'1111.3
2017-Feb-17 02:33N 36°31' E 013°15'1111.3
2017-Feb-17 01:33N 36°36' E 013°02'2811.4
2017-Feb-16 23:05N 36°48' E 012°31'  
2017-Feb-13 19:27N 36°01' W 004°59'1213.4
2017-Feb-13 18:33N 35°59' W 005°14'1413.7
2017-Feb-13 17:33N 35°57' W 005°31'1312.5
2017-Feb-13 16:31N 35°53' W 005°46'  
2017-Feb-11 11:29N 28°57' W 012°53'1010.5
2017-Feb-11 10:31N 28°49' W 012°60'1111.0
2017-Feb-11 09:31N 28°40' W 013°07'1111.4
2017-Feb-11 08:33N 28°30' W 013°14'1111.4
2017-Feb-11 07:33N 28°21' W 013°21'  
2017-Feb-07 23:32N 15°26' W 017°40'1010.3
2017-Feb-07 22:33N 15°16' W 017°40'  
Track history (hours):
 
Tides and Currents Weather Stations Pressure Air Temp Water Temp Dewpoint Dewpoint Depression Visibility Wind Speed Wind Dir Waves Ship Positions

Amoy Dream

Last reported at 2017-Feb-17 18:21 UTC. Time now 2017-Feb-20 13:58 UTC.
Position N 36°03' E 015°06'.

Length 190 m; draft 12.8 m.

Type: Cargo ship. MMSI: 477826600.

Date/timePositionNaut miles runAvg speedWind from/ knotsBaromVisibWave heightAir tempDewpointWater temp
2017-Feb-17 18:21N 36°03' E 015°06'911.4
2017-Feb-17 17:33N 36°03' E 014°54'1211.5
2017-Feb-17 16:33N 36°02' E 014°40'1111.4
2017-Feb-17 15:33N 36°02' E 014°26'2 2.1
2017-Feb-17 14:32N 36°01' E 014°24'0 0.0
2017-Feb-17 13:32N 36°01' E 014°24'0 0.0
2017-Feb-17 12:32N 36°01' E 014°24'0 0.0
2017-Feb-17 11:32N 36°01' E 014°24'0 0.0
2017-Feb-17 10:32N 36°01' E 014°24'0 0.0
2017-Feb-17 09:32N 36°01' E 014°24'0 0.1
2017-Feb-17 08:32N 36°01' E 014°23'6 6.1
2017-Feb-17 07:33N 36°06' E 014°19'1211.6
2017-Feb-17 06:33N 36°11' E 014°06'1211.6
2017-Feb-17 05:33N 36°16' E 013°53'1211.7
2017-Feb-17 04:33N 36°21' E 013°40'1111.5
2017-Feb-17 03:33N 36°26' E 013°28'1111.3
2017-Feb-17 02:33N 36°31' E 013°15'1111.3
2017-Feb-17 01:33N 36°36' E 013°02'2811.4
2017-Feb-16 23:05N 36°48' E 012°31'  
2017-Feb-13 19:27N 36°01' W 004°59'1213.4
2017-Feb-13 18:33N 35°59' W 005°14'1413.7
2017-Feb-13 17:33N 35°57' W 005°31'1312.5
2017-Feb-13 16:31N 35°53' W 005°46'  
2017-Feb-11 11:29N 28°57' W 012°53'1010.5
2017-Feb-11 10:31N 28°49' W 012°60'1111.0
2017-Feb-11 09:31N 28°40' W 013°07'1111.4
2017-Feb-11 08:33N 28°30' W 013°14'1111.4
2017-Feb-11 07:33N 28°21' W 013°21'  
2017-Feb-07 23:32N 15°26' W 017°40'1010.3
2017-Feb-07 22:33N 15°16' W 017°40'  

Dump ship's entire track history